sensor_id;sensor_type;location;lat;lon;timestamp;pressure;altitude;pressure_sealevel;temperature;humidity
27685;BME280;46113;50.130;8.526;2023-04-30T00:00:02;99558.22;;;8.02;67.79
27685;BME280;46113;50.130;8.526;2023-04-30T00:02:35;99555.16;;;7.69;67.92
27685;BME280;46113;50.130;8.526;2023-04-30T00:05:03;99557.22;;;7.83;67.89
27685;BME280;46113;50.130;8.526;2023-04-30T00:07:30;99560.63;;;7.86;67.60
27685;BME280;46113;50.130;8.526;2023-04-30T00:09:57;99565.19;;;7.82;68.08
27685;BME280;46113;50.130;8.526;2023-04-30T00:12:52;99556.41;;;7.81;67.73
27685;BME280;46113;50.130;8.526;2023-04-30T00:15:45;99561.56;;;7.84;67.71
27685;BME280;46113;50.130;8.526;2023-04-30T00:18:13;99561.47;;;7.43;69.21
27685;BME280;46113;50.130;8.526;2023-04-30T00:20:40;99557.03;;;7.66;68.68
27685;BME280;46113;50.130;8.526;2023-04-30T00:23:07;99565.81;;;7.44;69.69
27685;BME280;46113;50.130;8.526;2023-04-30T00:25:34;99562.56;;;7.60;69.57
27685;BME280;46113;50.130;8.526;2023-04-30T00:28:01;99556.88;;;7.48;68.82
27685;BME280;46113;50.130;8.526;2023-04-30T00:30:28;99563.00;;;7.02;70.67
27685;BME280;46113;50.130;8.526;2023-04-30T00:32:58;99555.13;;;7.02;70.59
27685;BME280;46113;50.130;8.526;2023-04-30T00:35:25;99554.78;;;6.88;72.23
27685;BME280;46113;50.130;8.526;2023-04-30T00:37:53;99551.19;;;7.14;70.61
27685;BME280;46113;50.130;8.526;2023-04-30T00:40:21;99557.16;;;6.94;70.74
27685;BME280;46113;50.130;8.526;2023-04-30T00:42:51;99556.88;;;7.02;70.63
27685;BME280;46113;50.130;8.526;2023-04-30T00:45:21;99562.06;;;7.05;70.49
27685;BME280;46113;50.130;8.526;2023-04-30T00:47:49;99551.25;;;7.13;70.14
27685;BME280;46113;50.130;8.526;2023-04-30T00:50:16;99556.47;;;7.14;69.83
27685;BME280;46113;50.130;8.526;2023-04-30T00:52:44;99561.22;;;7.03;69.73
27685;BME280;46113;50.130;8.526;2023-04-30T00:55:11;99565.88;;;6.96;70.16
27685;BME280;46113;50.130;8.526;2023-04-30T00:57:39;99569.25;;;6.76;71.15
27685;BME280;46113;50.130;8.526;2023-04-30T01:00:09;99567.75;;;6.92;70.95
27685;BME280;46113;50.130;8.526;2023-04-30T01:02:37;99570.63;;;6.86;70.66
27685;BME280;46113;50.130;8.526;2023-04-30T01:05:05;99567.25;;;6.83;70.88
27685;BME280;46113;50.130;8.526;2023-04-30T01:07:36;99567.00;;;6.65;71.70
27685;BME280;46113;50.130;8.526;2023-04-30T01:10:05;99576.91;;;6.58;71.87
27685;BME280;46113;50.130;8.526;2023-04-30T01:15:59;99574.19;;;6.60;71.40
27685;BME280;46113;50.130;8.526;2023-04-30T01:18:41;99574.38;;;6.55;71.88
27685;BME280;46113;50.130;8.526;2023-04-30T01:21:11;99587.16;;;6.66;71.12
27685;BME280;46113;50.130;8.526;2023-04-30T01:23:46;99582.56;;;6.71;71.43
27685;BME280;46113;50.130;8.526;2023-04-30T01:26:56;99579.03;;;6.47;72.06
27685;BME280;46113;50.130;8.526;2023-04-30T01:29:25;99580.00;;;6.70;71.08
27685;BME280;46113;50.130;8.526;2023-04-30T01:31:53;99580.44;;;6.81;70.86
27685;BME280;46113;50.130;8.526;2023-04-30T01:34:22;99578.69;;;6.82;70.87
27685;BME280;46113;50.130;8.526;2023-04-30T01:39:42;99589.22;;;6.82;71.23
27685;BME280;46113;50.130;8.526;2023-04-30T01:42:59;99592.84;;;6.77;71.54
27685;BME280;46113;50.130;8.526;2023-04-30T01:45:54;99591.59;;;6.64;72.49
27685;BME280;46113;50.130;8.526;2023-04-30T01:48:42;99592.00;;;6.53;70.80
27685;BME280;46113;50.130;8.526;2023-04-30T01:51:43;99594.22;;;6.64;71.38
27685;BME280;46113;50.130;8.526;2023-04-30T01:54:34;99606.25;;;6.71;71.15
27685;BME280;46113;50.130;8.526;2023-04-30T01:57:06;99604.91;;;6.59;72.11
27685;BME280;46113;50.130;8.526;2023-04-30T01:59:38;99602.59;;;6.50;72.76
27685;BME280;46113;50.130;8.526;2023-04-30T02:02:09;99604.25;;;6.52;71.49
27685;BME280;46113;50.130;8.526;2023-04-30T02:04:39;99598.41;;;6.44;72.08
27685;BME280;46113;50.130;8.526;2023-04-30T02:07:08;99604.25;;;6.52;71.93
27685;BME280;46113;50.130;8.526;2023-04-30T02:09:35;99611.56;;;6.70;71.36
27685;BME280;46113;50.130;8.526;2023-04-30T02:12:04;99607.53;;;6.34;73.20
27685;BME280;46113;50.130;8.526;2023-04-30T02:14:31;99603.81;;;6.65;71.69
27685;BME280;46113;50.130;8.526;2023-04-30T02:16:58;99602.41;;;6.80;71.40
27685;BME280;46113;50.130;8.526;2023-04-30T02:19:29;99611.97;;;6.83;70.95
27685;BME280;46113;50.130;8.526;2023-04-30T02:21:57;99609.19;;;6.86;70.93
27685;BME280;46113;50.130;8.526;2023-04-30T02:24:28;99607.88;;;6.98;70.46
27685;BME280;46113;50.130;8.526;2023-04-30T02:26:55;99615.59;;;6.78;71.21
27685;BME280;46113;50.130;8.526;2023-04-30T02:29:22;99614.41;;;6.87;70.76
27685;BME280;46113;50.130;8.526;2023-04-30T02:31:49;99612.97;;;6.78;71.94
27685;BME280;46113;50.130;8.526;2023-04-30T02:34:16;99611.97;;;6.57;71.96
27685;BME280;46113;50.130;8.526;2023-04-30T02:36:47;99607.06;;;6.72;71.68
27685;BME280;46113;50.130;8.526;2023-04-30T02:39:14;99607.72;;;6.78;71.18
27685;BME280;46113;50.130;8.526;2023-04-30T02:41:41;99603.25;;;6.81;71.58
27685;BME280;46113;50.130;8.526;2023-04-30T02:44:11;99603.25;;;6.57;72.18
27685;BME280;46113;50.130;8.526;2023-04-30T02:46:38;99596.59;;;6.70;71.58
27685;BME280;46113;50.130;8.526;2023-04-30T02:49:05;99601.31;;;6.86;71.52
27685;BME280;46113;50.130;8.526;2023-04-30T02:51:32;99602.03;;;6.91;71.30
27685;BME280;46113;50.130;8.526;2023-04-30T02:54:03;99597.50;;;6.95;70.74
27685;BME280;46113;50.130;8.526;2023-04-30T02:56:33;99600.13;;;6.45;72.15
27685;BME280;46113;50.130;8.526;2023-04-30T02:59:00;99604.78;;;6.62;72.04
27685;BME280;46113;50.130;8.526;2023-04-30T03:01:27;99602.28;;;6.83;71.01
27685;BME280;46113;50.130;8.526;2023-04-30T03:03:54;99602.91;;;6.90;70.86
27685;BME280;46113;50.130;8.526;2023-04-30T03:06:23;99598.00;;;6.81;70.93
27685;BME280;46113;50.130;8.526;2023-04-30T03:08:50;99602.97;;;6.64;71.15
27685;BME280;46113;50.130;8.526;2023-04-30T03:11:17;99600.28;;;6.41;72.41
27685;BME280;46113;50.130;8.526;2023-04-30T03:13:44;99600.94;;;6.47;72.75
27685;BME280;46113;50.130;8.526;2023-04-30T03:16:12;99602.00;;;6.67;71.41
27685;BME280;46113;50.130;8.526;2023-04-30T03:18:39;99609.56;;;6.76;71.84
27685;BME280;46113;50.130;8.526;2023-04-30T03:21:05;99598.47;;;6.17;73.06
27685;BME280;46113;50.130;8.526;2023-04-30T03:23:35;99598.53;;;6.41;72.20
27685;BME280;46113;50.130;8.526;2023-04-30T03:26:02;99600.28;;;6.41;71.96
27685;BME280;46113;50.130;8.526;2023-04-30T03:28:29;99596.19;;;6.57;71.40
27685;BME280;46113;50.130;8.526;2023-04-30T03:30:56;99606.44;;;6.65;71.42
27685;BME280;46113;50.130;8.526;2023-04-30T03:33:24;99604.09;;;6.57;71.00
27685;BME280;46113;50.130;8.526;2023-04-30T03:35:53;99606.38;;;6.67;70.98
27685;BME280;46113;50.130;8.526;2023-04-30T03:38:22;99609.03;;;6.67;70.60
27685;BME280;46113;50.130;8.526;2023-04-30T03:40:50;99615.97;;;6.68;71.16
27685;BME280;46113;50.130;8.526;2023-04-30T03:43:20;99616.69;;;6.73;70.69
27685;BME280;46113;50.130;8.526;2023-04-30T03:45:50;99614.13;;;6.71;70.88
27685;BME280;46113;50.130;8.526;2023-04-30T03:48:21;99621.19;;;6.69;70.51
27685;BME280;46113;50.130;8.526;2023-04-30T03:50:48;99607.78;;;6.77;70.37
27685;BME280;46113;50.130;8.526;2023-04-30T03:53:18;99616.75;;;6.71;70.84
27685;BME280;46113;50.130;8.526;2023-04-30T03:55:49;99610.53;;;6.74;70.62
27685;BME280;46113;50.130;8.526;2023-04-30T03:58:33;99616.63;;;6.74;70.63
27685;BME280;46113;50.130;8.526;2023-04-30T04:01:00;99617.03;;;6.63;70.93
27685;BME280;46113;50.130;8.526;2023-04-30T04:03:27;99617.78;;;6.67;70.96
27685;BME280;46113;50.130;8.526;2023-04-30T04:05:55;99615.66;;;6.53;71.11
27685;BME280;46113;50.130;8.526;2023-04-30T04:08:22;99618.97;;;6.58;70.66
27685;BME280;46113;50.130;8.526;2023-04-30T04:10:52;99621.66;;;6.57;71.16
27685;BME280;46113;50.130;8.526;2023-04-30T04:13:19;99618.63;;;6.42;71.16
27685;BME280;46113;50.130;8.526;2023-04-30T04:15:47;99620.31;;;6.45;71.38
27685;BME280;46113;50.130;8.526;2023-04-30T04:18:14;99626.97;;;6.55;71.03
27685;BME280;46113;50.130;8.526;2023-04-30T04:20:48;99623.88;;;6.17;72.18
27685;BME280;46113;50.130;8.526;2023-04-30T04:23:45;99630.69;;;6.22;72.28
27685;BME280;46113;50.130;8.526;2023-04-30T04:26:12;99633.31;;;6.22;72.34
27685;BME280;46113;50.130;8.526;2023-04-30T04:28:40;99637.41;;;6.31;71.62
27685;BME280;46113;50.130;8.526;2023-04-30T04:31:09;99628.28;;;6.42;71.45
27685;BME280;46113;50.130;8.526;2023-04-30T04:33:38;99638.34;;;6.29;71.56
27685;BME280;46113;50.130;8.526;2023-04-30T04:36:05;99640.25;;;6.25;71.25
27685;BME280;46113;50.130;8.526;2023-04-30T04:38:32;99641.00;;;6.02;71.94
27685;BME280;46113;50.130;8.526;2023-04-30T04:41:00;99643.09;;;5.63;73.37
27685;BME280;46113;50.130;8.526;2023-04-30T04:43:29;99639.94;;;5.80;72.78
27685;BME280;46113;50.130;8.526;2023-04-30T04:45:58;99632.88;;;6.09;71.86
27685;BME280;46113;50.130;8.526;2023-04-30T04:48:25;99638.22;;;5.79;72.51
27685;BME280;46113;50.130;8.526;2023-04-30T04:50:54;99640.63;;;5.85;73.14
27685;BME280;46113;50.130;8.526;2023-04-30T04:53:28;99641.88;;;5.73;72.92
27685;BME280;46113;50.130;8.526;2023-04-30T04:56:02;99639.94;;;5.80;72.72
27685;BME280;46113;50.130;8.526;2023-04-30T04:58:37;99638.78;;;6.16;71.80
27685;BME280;46113;50.130;8.526;2023-04-30T05:01:07;99638.66;;;6.46;71.04
27685;BME280;46113;50.130;8.526;2023-04-30T05:03:36;99643.75;;;6.76;70.23
27685;BME280;46113;50.130;8.526;2023-04-30T05:06:04;99646.56;;;6.70;70.19
27685;BME280;46113;50.130;8.526;2023-04-30T05:08:32;99646.19;;;7.07;69.07
27685;BME280;46113;50.130;8.526;2023-04-30T05:11:02;99654.69;;;6.64;69.70
27685;BME280;46113;50.130;8.526;2023-04-30T05:13:32;99657.88;;;6.98;69.30
27685;BME280;46113;50.130;8.526;2023-04-30T05:15:59;99650.66;;;7.28;67.79
27685;BME280;46113;50.130;8.526;2023-04-30T05:18:28;99646.84;;;7.36;67.09
27685;BME280;46113;50.130;8.526;2023-04-30T05:20:55;99648.66;;;7.57;66.56
27685;BME280;46113;50.130;8.526;2023-04-30T05:23:22;99645.97;;;7.13;67.19
27685;BME280;46113;50.130;8.526;2023-04-30T05:25:52;99653.47;;;6.98;67.47
27685;BME280;46113;50.130;8.526;2023-04-30T05:28:19;99656.94;;;7.70;65.03
27685;BME280;46113;50.130;8.526;2023-04-30T05:30:46;99655.03;;;7.96;63.83
27685;BME280;46113;50.130;8.526;2023-04-30T05:33:18;99650.28;;;8.05;63.88
27685;BME280;46113;50.130;8.526;2023-04-30T05:35:48;99651.81;;;8.10;63.88
27685;BME280;46113;50.130;8.526;2023-04-30T05:38:15;99651.66;;;8.36;62.86
27685;BME280;46113;50.130;8.526;2023-04-30T05:40:42;99651.25;;;8.45;62.16
27685;BME280;46113;50.130;8.526;2023-04-30T05:43:09;99650.31;;;8.69;61.43
27685;BME280;46113;50.130;8.526;2023-04-30T05:45:36;99643.19;;;8.71;61.55
27685;BME280;46113;50.130;8.526;2023-04-30T05:48:04;99637.13;;;8.69;60.79
27685;BME280;46113;50.130;8.526;2023-04-30T05:53:48;99639.88;;;8.66;61.32
27685;BME280;46113;50.130;8.526;2023-04-30T05:56:15;99647.75;;;8.03;62.36
27685;BME280;46113;50.130;8.526;2023-04-30T05:58:42;99642.09;;;8.56;61.41
27685;BME280;46113;50.130;8.526;2023-04-30T06:01:12;99647.50;;;8.93;60.38
27685;BME280;46113;50.130;8.526;2023-04-30T06:03:39;99643.81;;;9.16;59.63
27685;BME280;46113;50.130;8.526;2023-04-30T06:06:06;99644.97;;;8.27;60.99
27685;BME280;46113;50.130;8.526;2023-04-30T06:08:41;99647.63;;;8.27;61.43
27685;BME280;46113;50.130;8.526;2023-04-30T06:11:11;99640.63;;;8.05;61.76
27685;BME280;46113;50.130;8.526;2023-04-30T06:13:39;99642.25;;;8.51;61.33
27685;BME280;46113;50.130;8.526;2023-04-30T06:16:09;99647.44;;;8.32;59.66
27685;BME280;46113;50.130;8.526;2023-04-30T06:18:36;99648.22;;;8.34;58.96
27685;BME280;46113;50.130;8.526;2023-04-30T06:21:06;99648.41;;;8.52;58.76
27685;BME280;46113;50.130;8.526;2023-04-30T06:23:33;99629.59;;;9.19;56.94
27685;BME280;46113;50.130;8.526;2023-04-30T06:26:00;99648.28;;;8.95;57.44
27685;BME280;46113;50.130;8.526;2023-04-30T06:28:27;99639.31;;;9.18;56.72
27685;BME280;46113;50.130;8.526;2023-04-30T06:30:56;99644.88;;;9.31;55.18
27685;BME280;46113;50.130;8.526;2023-04-30T06:33:25;99640.38;;;9.33;54.60
27685;BME280;46113;50.130;8.526;2023-04-30T06:36:01;99637.94;;;8.90;55.99
27685;BME280;46113;50.130;8.526;2023-04-30T06:38:31;99641.19;;;9.72;53.55
27685;BME280;46113;50.130;8.526;2023-04-30T06:41:03;99634.66;;;9.81;53.27
27685;BME280;46113;50.130;8.526;2023-04-30T06:43:33;99642.69;;;9.97;53.27
27685;BME280;46113;50.130;8.526;2023-04-30T06:46:02;99638.50;;;10.11;52.60
27685;BME280;46113;50.130;8.526;2023-04-30T06:48:29;99646.50;;;9.53;51.97
27685;BME280;46113;50.130;8.526;2023-04-30T06:51:01;99633.47;;;10.06;51.87
27685;BME280;46113;50.130;8.526;2023-04-30T06:53:30;99635.59;;;9.61;52.10
27685;BME280;46113;50.130;8.526;2023-04-30T06:55:58;99625.19;;;10.30;51.36
27685;BME280;46113;50.130;8.526;2023-04-30T06:58:35;99630.06;;;9.85;51.32
27685;BME280;46113;50.130;8.526;2023-04-30T07:01:04;99626.16;;;9.74;49.89
27685;BME280;46113;50.130;8.526;2023-04-30T07:03:31;99633.03;;;10.67;49.83
27685;BME280;46113;50.130;8.526;2023-04-30T07:06:04;99629.06;;;10.58;48.42
27685;BME280;46113;50.130;8.526;2023-04-30T07:08:34;99625.22;;;10.81;48.13
27685;BME280;46113;50.130;8.526;2023-04-30T07:11:01;99621.94;;;10.94;47.91
27685;BME280;46113;50.130;8.526;2023-04-30T07:13:30;99627.66;;;10.68;47.58
27685;BME280;46113;50.130;8.526;2023-04-30T07:16:12;99623.78;;;11.09;47.33
27685;BME280;46113;50.130;8.526;2023-04-30T07:18:41;99620.50;;;11.68;46.39
27685;BME280;46113;50.130;8.526;2023-04-30T07:21:11;99618.56;;;11.56;45.61
27685;BME280;46113;50.130;8.526;2023-04-30T07:23:38;99625.13;;;11.65;45.87
27685;BME280;46113;50.130;8.526;2023-04-30T07:26:08;99616.38;;;12.11;45.29
27685;BME280;46113;50.130;8.526;2023-04-30T07:28:35;99612.50;;;11.38;46.12
27685;BME280;46113;50.130;8.526;2023-04-30T07:31:02;99615.72;;;12.22;46.42
27685;BME280;46113;50.130;8.526;2023-04-30T07:33:28;99609.16;;;12.13;45.05
27685;BME280;46113;50.130;8.526;2023-04-30T07:35:56;99612.66;;;12.59;43.88
27685;BME280;46113;50.130;8.526;2023-04-30T07:38:23;99610.00;;;13.03;43.43
27685;BME280;46113;50.130;8.526;2023-04-30T07:40:50;99620.03;;;12.54;43.05
27685;BME280;46113;50.130;8.526;2023-04-30T07:43:17;99617.25;;;11.79;43.60
27685;BME280;46113;50.130;8.526;2023-04-30T07:45:46;99618.41;;;11.43;44.32
27685;BME280;46113;50.130;8.526;2023-04-30T07:48:15;99617.75;;;12.33;43.11
27685;BME280;46113;50.130;8.526;2023-04-30T07:50:42;99614.47;;;11.97;42.92
27685;BME280;46113;50.130;8.526;2023-04-30T07:53:12;99614.88;;;12.22;42.82
27685;BME280;46113;50.130;8.526;2023-04-30T07:55:39;99613.44;;;12.61;42.35
27685;BME280;46113;50.130;8.526;2023-04-30T07:58:06;99619.78;;;12.13;43.38
27685;BME280;46113;50.130;8.526;2023-04-30T08:00:33;99611.25;;;12.82;42.07
27685;BME280;46113;50.130;8.526;2023-04-30T08:03:00;99617.22;;;12.86;41.88
27685;BME280;46113;50.130;8.526;2023-04-30T08:05:27;99614.34;;;13.47;41.29
27685;BME280;46113;50.130;8.526;2023-04-30T08:07:54;99614.94;;;14.34;38.55
27685;BME280;46113;50.130;8.526;2023-04-30T08:10:21;99621.53;;;14.00;39.20
27685;BME280;46113;50.130;8.526;2023-04-30T08:12:49;99613.34;;;15.95;34.66
27685;BME280;46113;50.130;8.526;2023-04-30T08:15:16;99621.00;;;15.01;36.43
27685;BME280;46113;50.130;8.526;2023-04-30T08:17:44;99624.38;;;14.51;36.04
27685;BME280;46113;50.130;8.526;2023-04-30T08:20:16;99621.28;;;16.55;33.42
27685;BME280;46113;50.130;8.526;2023-04-30T08:22:43;99622.56;;;15.16;34.62
27685;BME280;46113;50.130;8.526;2023-04-30T08:25:10;99623.66;;;14.75;35.00
27685;BME280;46113;50.130;8.526;2023-04-30T08:27:38;99621.00;;;15.51;36.53
27685;BME280;46113;50.130;8.526;2023-04-30T08:30:06;99617.13;;;16.63;32.79
27685;BME280;46113;50.130;8.526;2023-04-30T08:32:34;99617.69;;;15.10;33.38
27685;BME280;46113;50.130;8.526;2023-04-30T08:35:03;99612.03;;;15.02;34.46
27685;BME280;46113;50.130;8.526;2023-04-30T08:37:30;99609.88;;;14.94;35.34
27685;BME280;46113;50.130;8.526;2023-04-30T08:40:00;99609.97;;;15.31;35.31
27685;BME280;46113;50.130;8.526;2023-04-30T08:42:30;99609.63;;;15.85;33.08
27685;BME280;46113;50.130;8.526;2023-04-30T08:44:59;99606.38;;;16.17;33.06
27685;BME280;46113;50.130;8.526;2023-04-30T08:47:30;99603.19;;;16.71;31.69
27685;BME280;46113;50.130;8.526;2023-04-30T08:49:57;99614.22;;;15.96;32.47
27685;BME280;46113;50.130;8.526;2023-04-30T08:52:25;99607.53;;;15.77;32.65
27685;BME280;46113;50.130;8.526;2023-04-30T08:54:56;99608.31;;;14.78;33.88
27685;BME280;46113;50.130;8.526;2023-04-30T08:57:26;99619.16;;;15.14;31.67
27685;BME280;46113;50.130;8.526;2023-04-30T08:59:53;99616.81;;;13.36;34.78
27685;BME280;46113;50.130;8.526;2023-04-30T09:02:23;99604.53;;;13.75;35.12
27685;BME280;46113;50.130;8.526;2023-04-30T09:05:13;99596.81;;;14.91;35.22
27685;BME280;46113;50.130;8.526;2023-04-30T09:07:44;99601.88;;;16.06;32.32
27685;BME280;46113;50.130;8.526;2023-04-30T09:10:34;99607.19;;;15.57;33.33
27685;BME280;46113;50.130;8.526;2023-04-30T09:13:07;99607.56;;;14.24;33.88
27685;BME280;46113;50.130;8.526;2023-04-30T09:15:38;99606.72;;;13.96;35.55
27685;BME280;46113;50.130;8.526;2023-04-30T09:18:17;99586.66;;;15.46;33.58
27685;BME280;46113;50.130;8.526;2023-04-30T09:20:53;99594.81;;;14.55;35.02
27685;BME280;46113;50.130;8.526;2023-04-30T09:23:22;99595.78;;;14.54;35.45
27685;BME280;46113;50.130;8.526;2023-04-30T09:25:53;99596.72;;;14.00;35.85
27685;BME280;46113;50.130;8.526;2023-04-30T09:28:25;99592.88;;;14.57;34.88
27685;BME280;46113;50.130;8.526;2023-04-30T09:34:44;99588.09;;;14.24;35.07
27685;BME280;46113;50.130;8.526;2023-04-30T09:37:11;99584.06;;;14.57;36.32
27685;BME280;46113;50.130;8.526;2023-04-30T09:39:48;99583.94;;;14.71;35.21
27685;BME280;46113;50.130;8.526;2023-04-30T09:42:20;99588.63;;;14.29;36.44
27685;BME280;46113;50.130;8.526;2023-04-30T09:44:48;99585.28;;;13.72;37.92
27685;BME280;46113;50.130;8.526;2023-04-30T09:47:17;99579.97;;;13.44;37.36
27685;BME280;46113;50.130;8.526;2023-04-30T09:49:53;99580.22;;;13.54;37.55
27685;BME280;46113;50.130;8.526;2023-04-30T09:52:24;99565.09;;;13.42;36.71
27685;BME280;46113;50.130;8.526;2023-04-30T09:54:54;99567.28;;;14.03;37.32
27685;BME280;46113;50.130;8.526;2023-04-30T09:57:22;99569.25;;;14.53;37.21
27685;BME280;46113;50.130;8.526;2023-04-30T09:59:51;99567.97;;;14.58;35.52
27685;BME280;46113;50.130;8.526;2023-04-30T10:02:19;99566.16;;;14.72;38.90
27685;BME280;46113;50.130;8.526;2023-04-30T10:04:54;99568.25;;;14.02;37.29
27685;BME280;46113;50.130;8.526;2023-04-30T10:07:30;99570.84;;;14.42;37.04
27685;BME280;46113;50.130;8.526;2023-04-30T10:10:08;99569.66;;;14.21;36.07
27685;BME280;46113;50.130;8.526;2023-04-30T10:12:55;99555.63;;;14.44;36.81
27685;BME280;46113;50.130;8.526;2023-04-30T10:15:42;99561.28;;;14.53;36.76
27685;BME280;46113;50.130;8.526;2023-04-30T10:18:36;99554.25;;;14.39;37.32
27685;BME280;46113;50.130;8.526;2023-04-30T10:21:06;99554.81;;;14.94;36.21
27685;BME280;46113;50.130;8.526;2023-04-30T10:23:38;99543.38;;;14.29;37.18
27685;BME280;46113;50.130;8.526;2023-04-30T10:26:10;99551.91;;;13.81;37.50
27685;BME280;46113;50.130;8.526;2023-04-30T10:28:39;99548.25;;;14.09;37.71
27685;BME280;46113;50.130;8.526;2023-04-30T10:31:08;99549.63;;;14.02;37.37
27685;BME280;46113;50.130;8.526;2023-04-30T10:36:43;99542.16;;;13.81;38.33
27685;BME280;46113;50.130;8.526;2023-04-30T10:39:11;99523.91;;;14.15;37.85
27685;BME280;46113;50.130;8.526;2023-04-30T10:41:39;99525.56;;;13.90;37.58
27685;BME280;46113;50.130;8.526;2023-04-30T10:44:06;99519.59;;;13.87;38.22
27685;BME280;46113;50.130;8.526;2023-04-30T10:46:34;99516.56;;;14.06;38.78
27685;BME280;46113;50.130;8.526;2023-04-30T10:49:06;99516.03;;;14.40;37.97
27685;BME280;46113;50.130;8.526;2023-04-30T10:51:50;99509.97;;;14.25;37.12
27685;BME280;46113;50.130;8.526;2023-04-30T10:54:30;99506.56;;;14.36;36.95
27685;BME280;46113;50.130;8.526;2023-04-30T10:57:16;99498.53;;;14.62;37.51
27685;BME280;46113;50.130;8.526;2023-04-30T10:59:51;99498.00;;;14.69;37.44
27685;BME280;46113;50.130;8.526;2023-04-30T11:02:19;99498.31;;;15.15;37.10
27685;BME280;46113;50.130;8.526;2023-04-30T11:07:32;99490.13;;;14.55;37.35
27685;BME280;46113;50.130;8.526;2023-04-30T11:10:00;99495.53;;;14.79;37.24
27685;BME280;46113;50.130;8.526;2023-04-30T11:12:28;99492.19;;;14.25;37.44
27685;BME280;46113;50.130;8.526;2023-04-30T11:15:13;99488.97;;;14.96;36.71
27685;BME280;46113;50.130;8.526;2023-04-30T11:17:42;99483.47;;;14.49;37.19
27685;BME280;46113;50.130;8.526;2023-04-30T11:20:11;99493.44;;;13.94;38.06
27685;BME280;46113;50.130;8.526;2023-04-30T11:22:39;99480.81;;;14.36;38.05
27685;BME280;46113;50.130;8.526;2023-04-30T11:25:11;99491.75;;;14.44;37.56
27685;BME280;46113;50.130;8.526;2023-04-30T11:27:42;99478.81;;;14.14;38.30
27685;BME280;46113;50.130;8.526;2023-04-30T11:30:15;99480.19;;;14.07;37.72
27685;BME280;46113;50.130;8.526;2023-04-30T11:32:44;99492.19;;;14.38;38.94
27685;BME280;46113;50.130;8.526;2023-04-30T11:35:16;99485.03;;;14.00;37.32
27685;BME280;46113;50.130;8.526;2023-04-30T11:37:53;99469.94;;;14.26;37.42
27685;BME280;46113;50.130;8.526;2023-04-30T11:40:21;99468.28;;;14.12;38.10
27685;BME280;46113;50.130;8.526;2023-04-30T11:42:50;99467.41;;;14.25;37.27
27685;BME280;46113;50.130;8.526;2023-04-30T11:45:17;99462.75;;;14.66;37.01
27685;BME280;46113;50.130;8.526;2023-04-30T11:47:50;99469.22;;;14.24;37.10
27685;BME280;46113;50.130;8.526;2023-04-30T11:50:20;99463.38;;;14.69;37.57
27685;BME280;46113;50.130;8.526;2023-04-30T11:52:54;99460.19;;;14.14;37.71
27685;BME280;46113;50.130;8.526;2023-04-30T11:55:23;99479.38;;;13.65;38.10
27685;BME280;46113;50.130;8.526;2023-04-30T11:57:57;99460.47;;;14.35;36.91
27685;BME280;46113;50.130;8.526;2023-04-30T12:00:29;99455.78;;;14.00;37.33
27685;BME280;46113;50.130;8.526;2023-04-30T12:02:58;99451.00;;;14.44;36.98
27685;BME280;46113;50.130;8.526;2023-04-30T12:05:26;99461.00;;;13.88;38.09
27685;BME280;46113;50.130;8.526;2023-04-30T12:08:00;99465.34;;;14.02;37.78
27685;BME280;46113;50.130;8.526;2023-04-30T12:10:30;99464.28;;;13.92;37.42
27685;BME280;46113;50.130;8.526;2023-04-30T12:12:58;99462.69;;;13.89;37.61
27685;BME280;46113;50.130;8.526;2023-04-30T12:15:25;99459.72;;;13.81;37.61
27685;BME280;46113;50.130;8.526;2023-04-30T12:17:54;99458.69;;;14.10;37.36
27685;BME280;46113;50.130;8.526;2023-04-30T12:20:25;99451.50;;;14.62;37.10
27685;BME280;46113;50.130;8.526;2023-04-30T12:22:52;99453.81;;;14.67;36.53
27685;BME280;46113;50.130;8.526;2023-04-30T12:25:20;99445.72;;;14.93;36.40
27685;BME280;46113;50.130;8.526;2023-04-30T12:27:52;99441.72;;;14.50;36.60
27685;BME280;46113;50.130;8.526;2023-04-30T12:30:24;99436.09;;;13.89;38.24
27685;BME280;46113;50.130;8.526;2023-04-30T12:32:55;99451.53;;;14.49;37.21
27685;BME280;46113;50.130;8.526;2023-04-30T12:35:23;99447.31;;;14.71;39.00
27685;BME280;46113;50.130;8.526;2023-04-30T12:37:52;99449.06;;;14.46;37.20
27685;BME280;46113;50.130;8.526;2023-04-30T12:40:26;99438.09;;;14.88;37.04
27685;BME280;46113;50.130;8.526;2023-04-30T12:43:07;99429.97;;;14.15;36.15
27685;BME280;46113;50.130;8.526;2023-04-30T12:48:13;99437.06;;;14.27;38.08
27685;BME280;46113;50.130;8.526;2023-04-30T12:50:51;99437.47;;;14.47;37.80
27685;BME280;46113;50.130;8.526;2023-04-30T12:53:22;99438.72;;;14.54;37.84
27685;BME280;46113;50.130;8.526;2023-04-30T12:56:18;99429.84;;;14.03;37.61
27685;BME280;46113;50.130;8.526;2023-04-30T12:58:46;99428.59;;;14.60;37.14
27685;BME280;46113;50.130;8.526;2023-04-30T13:01:18;99422.09;;;14.88;38.31
27685;BME280;46113;50.130;8.526;2023-04-30T13:03:46;99424.19;;;14.34;37.17
27685;BME280;46113;50.130;8.526;2023-04-30T13:06:14;99424.34;;;14.57;36.99
27685;BME280;46113;50.130;8.526;2023-04-30T13:08:43;99416.47;;;15.17;36.84
27685;BME280;46113;50.130;8.526;2023-04-30T13:11:23;99416.31;;;14.70;38.34
27685;BME280;46113;50.130;8.526;2023-04-30T13:13:52;99417.56;;;14.77;38.25
27685;BME280;46113;50.130;8.526;2023-04-30T13:16:21;99419.56;;;15.11;38.24
27685;BME280;46113;50.130;8.526;2023-04-30T13:18:50;99414.94;;;14.89;37.51
27685;BME280;46113;50.130;8.526;2023-04-30T13:21:17;99399.47;;;15.43;35.77
27685;BME280;46113;50.130;8.526;2023-04-30T13:23:44;99404.16;;;15.03;37.47
27685;BME280;46113;50.130;8.526;2023-04-30T13:26:19;99410.81;;;14.60;37.82
27685;BME280;46113;50.130;8.526;2023-04-30T13:28:46;99401.97;;;13.83;38.03
27685;BME280;46113;50.130;8.526;2023-04-30T13:31:13;99403.47;;;14.51;38.21
27685;BME280;46113;50.130;8.526;2023-04-30T13:33:40;99389.25;;;14.52;38.24
27685;BME280;46113;50.130;8.526;2023-04-30T13:36:07;99379.25;;;14.42;38.64
27685;BME280;46113;50.130;8.526;2023-04-30T13:38:34;99383.00;;;14.64;37.72
27685;BME280;46113;50.130;8.526;2023-04-30T13:41:01;99388.88;;;14.81;37.57
27685;BME280;46113;50.130;8.526;2023-04-30T13:43:28;99380.28;;;15.02;36.47